createdAt,value
2018-04-13T00:00:42.284Z,10.07
2018-04-13T00:03:09.868Z,10.01
2018-04-13T00:05:37.349Z,9.94
2018-04-13T00:08:04.837Z,9.83
2018-04-13T00:10:32.327Z,9.79
2018-04-13T00:12:59.830Z,9.81
2018-04-13T00:15:27.354Z,9.69
2018-04-13T00:17:54.843Z,9.64
2018-04-13T00:20:22.414Z,9.60
2018-04-13T00:22:49.905Z,9.50
2018-04-13T00:25:17.385Z,9.47
2018-04-13T00:27:44.892Z,9.40
2018-04-13T00:30:12.363Z,9.33
2018-04-13T00:32:39.835Z,9.30
2018-04-13T00:35:07.312Z,9.33
2018-04-13T00:37:34.810Z,9.35
2018-04-13T00:40:02.316Z,9.40
2018-04-13T00:42:29.887Z,9.40
2018-04-13T00:44:57.357Z,9.41
2018-04-13T00:47:24.985Z,9.45
2018-04-13T00:49:52.438Z,9.48
2018-04-13T00:52:19.931Z,9.46
2018-04-13T00:54:47.442Z,9.42
2018-04-13T00:57:14.957Z,9.33
2018-04-13T00:59:42.463Z,9.27
2018-04-13T01:02:09.994Z,9.24
2018-04-13T01:04:37.510Z,9.18
2018-04-13T01:07:05.018Z,9.18
2018-04-13T01:09:32.564Z,9.17
2018-04-13T01:12:00.081Z,9.16
2018-04-13T01:14:27.592Z,9.18
2018-04-13T01:16:55.132Z,9.19
2018-04-13T01:19:22.636Z,9.23
2018-04-13T01:21:50.138Z,9.30
2018-04-13T01:24:17.780Z,9.38
2018-04-13T01:26:45.234Z,9.39
2018-04-13T01:29:12.724Z,9.33
2018-04-13T01:31:40.210Z,9.31
2018-04-13T01:34:07.695Z,9.25
2018-04-13T01:36:35.204Z,9.17
2018-04-13T01:39:02.778Z,9.11
2018-04-13T01:41:30.248Z,8.99
2018-04-13T01:43:57.730Z,8.96
2018-04-13T01:46:25.233Z,8.90
2018-04-13T01:48:52.748Z,8.86
2018-04-13T01:51:20.296Z,8.88
2018-04-13T01:53:47.783Z,8.89
2018-04-13T01:56:15.271Z,8.95
2018-04-13T01:58:42.758Z,8.98
2018-04-13T02:01:10.248Z,8.90
2018-04-13T02:03:37.714Z,9.00
2018-04-13T02:06:05.212Z,9.00
2018-04-13T02:08:32.721Z,9.02
2018-04-13T02:11:00.217Z,8.99
2018-04-13T02:13:27.689Z,9.01
2018-04-13T02:15:55.192Z,9.01
2018-04-13T02:18:22.684Z,9.03
2018-04-13T02:20:50.164Z,9.05
2018-04-13T02:23:17.668Z,9.03
2018-04-13T02:25:45.163Z,9.02
2018-04-13T02:28:12.670Z,9.02
2018-04-13T02:30:40.169Z,9.04
2018-04-13T02:33:07.661Z,9.06
2018-04-13T02:35:35.145Z,9.17
2018-04-13T02:38:02.648Z,9.11
2018-04-13T02:40:30.160Z,9.06
2018-04-13T02:42:57.648Z,9.04
2018-04-13T02:45:25.138Z,8.94
2018-04-13T02:47:52.666Z,8.93
2018-04-13T02:50:20.151Z,8.97
2018-04-13T02:52:47.665Z,8.93
2018-04-13T02:55:15.244Z,8.94
2018-04-13T02:57:42.730Z,8.81
2018-04-13T03:00:10.211Z,8.85
2018-04-13T03:02:37.701Z,8.78
2018-04-13T03:05:05.207Z,8.73
2018-04-13T03:07:32.701Z,8.70
2018-04-13T03:10:00.292Z,8.72
2018-04-13T03:12:27.795Z,8.79
2018-04-13T03:14:55.278Z,8.82
2018-04-13T03:17:22.820Z,8.84
2018-04-13T03:19:50.316Z,8.78
2018-04-13T03:22:18.624Z,8.79
2018-04-13T03:24:46.227Z,8.75
2018-04-13T03:27:13.730Z,8.72
2018-04-13T03:29:41.214Z,8.67
2018-04-13T03:32:08.708Z,8.61
2018-04-13T03:34:36.281Z,8.57
2018-04-13T03:37:03.768Z,8.55
2018-04-13T03:39:31.272Z,8.64
2018-04-13T03:41:58.785Z,8.65
2018-04-13T03:44:26.258Z,8.70
2018-04-13T03:46:53.764Z,8.71
2018-04-13T03:49:21.257Z,8.75
2018-04-13T03:51:48.748Z,8.73
2018-04-13T03:54:16.235Z,8.64
2018-04-13T03:56:43.729Z,8.79
2018-04-13T03:59:11.193Z,8.86
2018-04-13T04:01:38.662Z,8.91
2018-04-13T04:04:06.174Z,8.97
2018-04-13T04:06:33.669Z,8.99
2018-04-13T04:09:01.228Z,9.07
2018-04-13T04:11:28.717Z,9.13
2018-04-13T04:13:56.203Z,9.23
2018-04-13T04:16:23.703Z,9.31
2018-04-13T04:18:51.271Z,9.35
2018-04-13T04:21:31.484Z,9.39
2018-04-13T04:24:10.871Z,9.49
2018-04-13T04:26:48.056Z,9.51
2018-04-13T04:29:15.592Z,9.54
2018-04-13T04:31:43.148Z,9.52
2018-04-13T04:34:10.657Z,9.62
2018-04-13T04:36:38.138Z,9.68
2018-04-13T04:39:06.404Z,9.68
2018-04-13T04:41:33.986Z,9.69
2018-04-13T04:44:01.473Z,9.71
2018-04-13T04:46:28.958Z,9.70
2018-04-13T04:48:56.540Z,9.73
2018-04-13T04:51:24.062Z,9.74
2018-04-13T04:53:51.553Z,9.49
2018-04-13T04:56:19.043Z,9.43
2018-04-13T04:58:46.522Z,9.37
2018-04-13T05:01:14.008Z,9.46
2018-04-13T05:03:41.579Z,9.49
2018-04-13T05:06:09.034Z,9.57
2018-04-13T05:08:36.551Z,9.57
2018-04-13T05:11:04.062Z,9.55
2018-04-13T05:13:31.629Z,9.72
2018-04-13T05:15:59.118Z,9.69
2018-04-13T05:18:26.607Z,9.80
2018-04-13T05:20:54.165Z,9.84
2018-04-13T05:23:21.647Z,9.95
2018-04-13T05:25:49.166Z,10.03
2018-04-13T05:28:16.661Z,10.10
2018-04-13T05:30:44.164Z,10.15
2018-04-13T05:33:11.710Z,10.22
2018-04-13T05:35:39.179Z,10.39
2018-04-13T05:38:06.711Z,10.39
2018-04-13T05:40:34.225Z,10.58
2018-04-13T05:43:01.717Z,10.60
2018-04-13T05:45:29.213Z,10.61
2018-04-13T05:47:56.690Z,10.65
2018-04-13T05:50:24.172Z,10.71
2018-04-13T05:52:51.687Z,10.76
2018-04-13T05:55:19.180Z,10.77
2018-04-13T05:57:47.120Z,10.72
2018-04-13T06:00:14.659Z,10.80
2018-04-13T06:02:42.135Z,10.71
2018-04-13T06:05:09.637Z,10.73
2018-04-13T06:07:37.162Z,10.69
2018-04-13T06:10:04.659Z,10.91
2018-04-13T06:12:32.346Z,10.91
2018-04-13T06:15:00.005Z,11.03
2018-04-13T06:17:27.497Z,11.22
2018-04-13T06:19:55.228Z,11.17
2018-04-13T06:22:23.881Z,11.42
2018-04-13T06:24:52.619Z,11.57
2018-04-13T06:27:20.110Z,11.88
2018-04-13T06:29:47.672Z,11.89
2018-04-13T06:32:15.181Z,12.19
2018-04-13T06:34:42.791Z,12.33
2018-04-13T06:37:10.314Z,12.40
2018-04-13T06:39:37.924Z,12.48
2018-04-13T06:42:05.415Z,12.42
2018-04-13T06:44:34.126Z,12.24
2018-04-13T06:47:01.655Z,12.29
2018-04-13T06:49:29.147Z,12.20
2018-04-13T06:51:56.650Z,12.51
2018-04-13T06:54:24.144Z,12.30
2018-04-13T06:56:51.638Z,12.87
2018-04-13T06:59:19.138Z,13.01
2018-04-13T07:01:46.630Z,13.07
2018-04-13T07:04:14.121Z,13.25
2018-04-13T07:06:41.781Z,13.30
2018-04-13T07:09:09.394Z,13.49
2018-04-13T07:11:36.887Z,13.54
2018-04-13T07:14:04.415Z,13.48
2018-04-13T07:16:32.057Z,13.48
2018-04-13T07:18:59.622Z,13.53
2018-04-13T07:21:27.190Z,13.59
2018-04-13T07:23:54.680Z,13.71
2018-04-13T07:26:22.177Z,13.90
2018-04-13T07:28:49.701Z,14.13
2018-04-13T07:31:17.315Z,14.19
2018-04-13T07:33:44.801Z,14.24
2018-04-13T07:36:12.506Z,14.36
2018-04-13T07:38:40.211Z,14.52
2018-04-13T07:41:07.729Z,14.40
2018-04-13T07:43:35.232Z,14.63
2018-04-13T07:46:02.796Z,14.59
2018-04-13T07:48:30.260Z,14.89
2018-04-13T07:50:57.770Z,14.95
2018-04-13T07:53:25.263Z,14.85
2018-04-13T07:55:52.735Z,14.94
2018-04-13T07:58:20.301Z,15.18
2018-04-13T08:00:47.799Z,15.21
2018-04-13T08:03:15.347Z,15.29
2018-04-13T08:05:42.830Z,15.44
2018-04-13T08:08:10.511Z,15.56
2018-04-13T08:10:37.930Z,15.57
2018-04-13T08:13:05.645Z,15.59
2018-04-13T08:15:33.148Z,15.61
2018-04-13T08:18:00.715Z,15.53
2018-04-13T08:20:28.450Z,15.50
2018-04-13T08:22:55.936Z,15.70
2018-04-13T08:25:23.559Z,15.68
2018-04-13T08:27:51.152Z,15.77
2018-04-13T08:30:18.703Z,16.21
2018-04-13T08:32:46.253Z,16.11
2018-04-13T08:35:13.756Z,16.32
2018-04-13T08:37:41.596Z,16.33
2018-04-13T08:40:09.136Z,16.46
2018-04-13T08:42:37.068Z,16.56
2018-04-13T08:45:04.574Z,15.99
2018-04-13T08:47:32.070Z,16.08
2018-04-13T08:49:59.569Z,15.53
2018-04-13T08:52:27.200Z,15.48
2018-04-13T08:54:54.765Z,15.62
2018-04-13T08:57:22.234Z,15.73
2018-04-13T08:59:49.755Z,15.72
2018-04-13T09:02:17.247Z,15.34
2018-04-13T09:04:44.789Z,15.22
2018-04-13T09:07:12.288Z,15.70
2018-04-13T09:09:39.793Z,15.55
2018-04-13T09:12:07.372Z,15.53
2018-04-13T09:14:39.497Z,15.17
2018-04-13T09:17:07.063Z,15.05
2018-04-13T09:19:34.567Z,14.91
2018-04-13T09:22:02.157Z,14.98
2018-04-13T09:24:29.964Z,15.00
2018-04-13T09:26:57.774Z,14.96
2018-04-13T09:29:25.343Z,14.81
2018-04-13T09:31:52.870Z,14.78
2018-04-13T09:34:20.384Z,14.80
2018-04-13T09:36:47.870Z,14.81
2018-04-13T09:39:15.411Z,14.61
2018-04-13T09:41:43.869Z,14.70
2018-04-13T09:44:11.355Z,14.57
2018-04-13T09:46:38.887Z,14.64
2018-04-13T09:49:06.373Z,14.52
2018-04-13T09:51:33.889Z,14.45
2018-04-13T09:54:01.391Z,14.44
2018-04-13T09:56:30.037Z,13.83
2018-04-13T09:58:57.587Z,13.54
2018-04-13T10:01:25.163Z,13.34
2018-04-13T10:04:05.172Z,13.16
2018-04-13T10:06:32.666Z,13.16
2018-04-13T10:09:00.137Z,13.03
2018-04-13T10:11:27.611Z,13.07
2018-04-13T10:13:55.084Z,12.95
2018-04-13T10:16:22.630Z,12.91
2018-04-13T10:18:50.112Z,12.90
2018-04-13T10:21:17.603Z,12.75
2018-04-13T10:23:45.092Z,12.60
2018-04-13T10:26:18.580Z,12.56
2018-04-13T10:28:46.190Z,12.06
2018-04-13T10:31:13.693Z,11.30
2018-04-13T10:33:43.416Z,10.87
2018-04-13T10:36:11.070Z,10.73
2018-04-13T10:38:38.578Z,10.74
2018-04-13T10:41:06.096Z,10.72
2018-04-13T10:43:33.651Z,10.76
2018-04-13T10:46:01.154Z,10.75
2018-04-13T10:48:28.710Z,10.55
2018-04-13T10:50:56.201Z,10.57
2018-04-13T10:53:23.708Z,10.57
2018-04-13T10:55:51.674Z,10.57
2018-04-13T10:58:19.551Z,10.58
2018-04-13T11:00:47.072Z,10.37
2018-04-13T11:03:14.657Z,10.52
2018-04-13T11:05:42.144Z,10.47
2018-04-13T11:08:09.791Z,10.46
2018-04-13T11:10:37.343Z,10.27
2018-04-13T11:13:04.842Z,10.24
2018-04-13T11:15:32.341Z,10.31
2018-04-13T11:17:59.932Z,10.16
2018-04-13T11:20:27.565Z,10.15
2018-04-13T11:22:55.104Z,10.06
2018-04-13T11:25:22.573Z,10.10
2018-04-13T11:27:50.043Z,10.20
2018-04-13T11:30:17.588Z,10.44
2018-04-13T11:32:45.216Z,10.32
2018-04-13T11:35:13.030Z,10.46
2018-04-13T11:37:40.531Z,10.27
2018-04-13T11:43:20.786Z,10.33
2018-04-13T11:45:48.296Z,10.49
2018-04-13T11:48:15.783Z,10.56
2018-04-13T11:50:43.328Z,10.43
2018-04-13T11:53:10.820Z,10.63
2018-04-13T11:55:38.316Z,10.59
2018-04-13T11:58:05.823Z,10.56
2018-04-13T12:00:33.348Z,10.71
2018-04-13T12:03:00.858Z,10.40
2018-04-13T12:05:28.352Z,10.29
2018-04-13T12:07:55.880Z,10.48
2018-04-13T12:10:23.381Z,10.33
2018-04-13T12:12:50.869Z,10.40
2018-04-13T12:15:18.741Z,10.64
2018-04-13T12:17:46.249Z,10.55
2018-04-13T12:20:13.727Z,10.49
2018-04-13T12:22:41.215Z,10.49
2018-04-13T12:25:08.711Z,10.39
2018-04-13T12:27:36.232Z,10.49
2018-04-13T12:30:03.784Z,10.66
2018-04-13T12:32:31.282Z,10.55
2018-04-13T12:34:58.854Z,10.61
2018-04-13T12:37:26.385Z,10.61
2018-04-13T12:39:53.863Z,10.66
2018-04-13T12:42:21.352Z,10.88
2018-04-13T12:44:48.917Z,10.94
2018-04-13T12:47:16.389Z,11.04
2018-04-13T12:49:43.894Z,11.08
2018-04-13T12:52:11.388Z,11.25
2018-04-13T12:54:39.176Z,11.46
2018-04-13T12:57:06.513Z,11.49
2018-04-13T12:59:34.037Z,11.45
2018-04-13T13:02:01.533Z,11.70
2018-04-13T13:04:29.042Z,11.58
2018-04-13T13:06:56.532Z,11.50
2018-04-13T13:09:24.034Z,11.42
2018-04-13T13:11:51.534Z,11.14
2018-04-13T13:14:19.054Z,11.12
2018-04-13T13:16:46.540Z,11.18
2018-04-13T13:19:14.077Z,11.17
2018-04-13T13:21:41.572Z,11.49
2018-04-13T13:24:09.133Z,11.96
2018-04-13T13:26:36.617Z,12.11
2018-04-13T13:29:04.131Z,12.35
2018-04-13T13:31:31.655Z,12.32
2018-04-13T13:33:59.182Z,12.22
2018-04-13T13:36:26.672Z,12.05
2018-04-13T13:38:54.162Z,11.84
2018-04-13T13:41:21.647Z,12.00
2018-04-13T13:43:49.147Z,12.04
2018-04-13T13:46:16.642Z,11.75
2018-04-13T13:48:44.207Z,11.91
2018-04-13T13:51:11.681Z,11.57
2018-04-13T13:53:39.170Z,11.49
2018-04-13T13:56:06.765Z,11.46
2018-04-13T13:58:34.248Z,11.41
2018-04-13T14:01:01.739Z,11.33
2018-04-13T14:03:29.239Z,11.35
2018-04-13T14:05:56.780Z,11.30
2018-04-13T14:08:24.296Z,11.26
2018-04-13T14:10:51.791Z,11.20
2018-04-13T14:13:19.377Z,11.39
2018-04-13T14:15:46.906Z,11.28
2018-04-13T14:18:14.499Z,11.21
2018-04-13T14:20:41.993Z,11.03
2018-04-13T14:23:09.529Z,11.04
2018-04-13T14:25:37.025Z,11.17
2018-04-13T14:28:04.554Z,11.12
2018-04-13T14:30:32.078Z,11.18
2018-04-13T14:32:59.519Z,11.18
2018-04-13T14:35:27.019Z,11.20
2018-04-13T14:37:54.527Z,11.29
2018-04-13T14:40:22.005Z,11.37
2018-04-13T14:42:49.536Z,11.51
2018-04-13T14:45:17.082Z,11.41
2018-04-13T14:47:44.596Z,11.56
2018-04-13T14:50:12.128Z,11.64
2018-04-13T14:52:39.782Z,11.74
2018-04-13T14:55:10.530Z,11.82
2018-04-13T14:57:38.046Z,11.85
2018-04-13T15:00:05.541Z,11.88
2018-04-13T15:02:33.069Z,12.04
2018-04-13T15:05:00.553Z,12.21
2018-04-13T15:07:28.072Z,12.23
2018-04-13T15:09:55.733Z,12.45
2018-04-13T15:12:23.220Z,12.69
2018-04-13T15:14:53.768Z,13.09
2018-04-13T15:17:26.529Z,13.30
2018-04-13T15:19:54.095Z,13.60
2018-04-13T15:22:21.636Z,13.87
2018-04-13T15:24:49.129Z,14.27
2018-04-13T15:27:16.669Z,14.49
2018-04-13T15:29:44.262Z,14.39
2018-04-13T15:32:12.224Z,14.49
2018-04-13T15:34:39.830Z,14.17
2018-04-13T15:37:07.333Z,13.94
2018-04-13T15:39:34.902Z,14.09
2018-04-13T15:42:02.489Z,14.16
2018-04-13T15:44:30.021Z,14.26
2018-04-13T15:46:57.623Z,14.24
2018-04-13T15:49:25.113Z,14.17
2018-04-13T15:51:52.889Z,14.24
2018-04-13T15:54:20.400Z,14.61
2018-04-13T15:56:47.896Z,14.64
2018-04-13T15:59:15.381Z,15.07
2018-04-13T16:01:43.093Z,15.32
2018-04-13T16:04:11.485Z,15.51
2018-04-13T16:06:38.951Z,15.91
2018-04-13T16:09:06.440Z,16.18
2018-04-13T16:11:33.915Z,16.44
2018-04-13T16:14:01.424Z,16.85
2018-04-13T16:16:28.967Z,17.39
2018-04-13T16:18:56.437Z,17.42
2018-04-13T16:21:23.925Z,17.92
2018-04-13T16:23:51.407Z,18.13
2018-04-13T16:26:18.968Z,18.22
2018-04-13T16:28:46.470Z,18.60
2018-04-13T16:31:14.465Z,18.05
2018-04-13T16:33:42.040Z,18.18
2018-04-13T16:36:09.512Z,18.16
2018-04-13T16:38:37.073Z,18.44
2018-04-13T16:41:04.682Z,18.31
2018-04-13T16:43:32.180Z,18.13
2018-04-13T16:45:59.735Z,17.74
2018-04-13T16:48:27.241Z,17.52
2018-04-13T16:50:54.749Z,17.38
2018-04-13T16:53:22.350Z,17.60
2018-04-13T16:55:49.835Z,17.35
2018-04-13T16:58:17.342Z,17.31
2018-04-13T17:00:44.888Z,16.86
2018-04-13T17:03:12.373Z,16.60
2018-04-13T17:05:39.851Z,16.22
2018-04-13T17:08:07.374Z,15.94
2018-04-13T17:10:34.893Z,15.20
2018-04-13T17:13:02.446Z,15.16
2018-04-13T17:15:29.926Z,14.84
2018-04-13T17:17:58.564Z,14.71
2018-04-13T17:20:26.070Z,14.23
2018-04-13T17:22:53.567Z,14.13
2018-04-13T17:25:21.265Z,13.91
2018-04-13T17:27:50.116Z,13.46
2018-04-13T17:30:17.578Z,13.44
2018-04-13T17:32:45.069Z,13.29
2018-04-13T17:35:12.548Z,13.19
2018-04-13T17:37:40.059Z,13.02
2018-04-13T17:40:10.307Z,12.77
2018-04-13T17:45:35.655Z,12.27
2018-04-13T17:48:03.238Z,12.09
2018-04-13T17:50:30.752Z,12.04
2018-04-13T17:52:58.417Z,11.87
2018-04-13T17:55:25.939Z,11.67
2018-04-13T17:57:53.446Z,11.59
2018-04-13T18:00:21.017Z,11.44
2018-04-13T18:02:48.656Z,11.26
2018-04-13T18:05:17.991Z,11.23
2018-04-13T18:07:46.294Z,11.08
2018-04-13T18:10:23.500Z,10.93
2018-04-13T18:12:52.025Z,10.82
2018-04-13T18:15:19.560Z,10.64
2018-04-13T18:17:47.068Z,10.49
2018-04-13T18:20:14.556Z,10.48
2018-04-13T18:22:42.094Z,10.50
2018-04-13T18:25:11.001Z,10.35
2018-04-13T18:27:38.562Z,10.29
2018-04-13T18:30:06.167Z,10.21
2018-04-13T18:32:34.176Z,10.14
2018-04-13T18:35:06.516Z,10.12
2018-04-13T18:37:36.925Z,10.14
2018-04-13T18:40:04.513Z,10.10
2018-04-13T18:42:37.902Z,10.05
2018-04-13T18:45:05.429Z,10.01
2018-04-13T18:47:38.367Z,9.92
2018-04-13T18:50:17.391Z,9.93
2018-04-13T18:52:45.508Z,9.91
2018-04-13T18:55:13.038Z,9.85
2018-04-13T18:57:40.541Z,9.88
2018-04-13T19:00:08.156Z,9.80
2018-04-13T19:02:37.191Z,9.81
2018-04-13T19:05:07.457Z,9.80
2018-04-13T19:07:35.664Z,9.75
2018-04-13T19:10:03.156Z,9.72
2018-04-13T19:12:30.887Z,9.67
2018-04-13T19:17:46.665Z,9.56
2018-04-13T19:23:09.724Z,9.62
2018-04-13T19:25:37.265Z,9.56
2018-04-13T19:28:04.743Z,9.54
2018-04-13T19:30:32.222Z,9.56
2018-04-13T19:32:59.732Z,9.68
2018-04-13T19:35:27.214Z,9.50
2018-04-13T19:37:54.768Z,9.49
2018-04-13T19:40:22.267Z,9.50
2018-04-13T19:42:50.275Z,9.55
2018-04-13T19:45:17.847Z,9.51
2018-04-13T19:47:45.283Z,9.54
2018-04-13T19:50:12.791Z,9.50
2018-04-13T19:52:40.333Z,9.44
2018-04-13T19:55:07.853Z,9.50
2018-04-13T19:57:35.351Z,9.45
2018-04-13T20:00:02.964Z,9.43
2018-04-13T20:02:30.533Z,9.41
2018-04-13T20:04:58.258Z,9.36
2018-04-13T20:07:25.753Z,9.34
2018-04-13T20:09:53.363Z,9.29
2018-04-13T20:12:20.857Z,9.33
2018-04-13T20:14:48.376Z,9.36
2018-04-13T20:17:15.908Z,9.35
2018-04-13T20:19:43.381Z,9.39
2018-04-13T20:22:10.857Z,9.39
2018-04-13T20:24:38.433Z,9.40
2018-04-13T20:27:06.004Z,9.41
2018-04-13T20:29:34.040Z,9.48
2018-04-13T20:32:01.642Z,9.59
2018-04-13T20:34:29.154Z,9.64
2018-04-13T20:36:56.648Z,9.60
2018-04-13T20:39:24.906Z,9.66
2018-04-13T20:41:52.605Z,9.66
2018-04-13T20:44:20.121Z,9.62
2018-04-13T20:46:47.617Z,9.50
2018-04-13T20:49:15.121Z,9.52
2018-04-13T20:51:42.633Z,9.36
2018-04-13T20:54:10.136Z,9.36
2018-04-13T20:56:37.654Z,9.19
2018-04-13T20:59:05.190Z,9.12
2018-04-13T21:01:32.860Z,9.09
2018-04-13T21:04:00.393Z,9.01
2018-04-13T21:06:27.887Z,8.92
2018-04-13T21:08:55.405Z,8.87
2018-04-13T21:11:22.939Z,8.82
2018-04-13T21:13:51.291Z,8.80
2018-04-13T21:16:18.777Z,8.75
2018-04-13T21:18:46.373Z,8.71
2018-04-13T21:21:13.846Z,8.62
2018-04-13T21:23:41.349Z,8.52
2018-04-13T21:26:08.843Z,8.55
2018-04-13T21:28:36.363Z,8.48
2018-04-13T21:31:03.849Z,8.50
2018-04-13T21:33:31.357Z,8.53
2018-04-13T21:35:58.837Z,8.46
2018-04-13T21:38:26.363Z,8.39
2018-04-13T21:40:53.936Z,8.40
2018-04-13T21:43:21.934Z,8.37
2018-04-13T21:45:49.463Z,8.33
2018-04-13T21:48:16.957Z,8.48
2018-04-13T21:50:44.440Z,8.50
2018-04-13T21:53:11.906Z,8.49
2018-04-13T21:55:39.389Z,8.34
2018-04-13T21:58:06.939Z,8.30
2018-04-13T22:00:34.466Z,8.22
2018-04-13T22:03:01.961Z,8.20
2018-04-13T22:05:29.462Z,8.07
2018-04-13T22:07:57.003Z,8.07
2018-04-13T22:10:24.498Z,8.01
2018-04-13T22:13:03.904Z,7.97
2018-04-13T22:15:31.464Z,7.88
2018-04-13T22:17:58.967Z,7.92
2018-04-13T22:20:26.524Z,7.80
2018-04-13T22:22:54.007Z,7.71
2018-04-13T22:25:21.508Z,7.69
2018-04-13T22:27:49.108Z,7.70
2018-04-13T22:30:16.610Z,7.67
2018-04-13T22:32:44.167Z,7.74
2018-04-13T22:35:11.646Z,7.69
2018-04-13T22:37:39.666Z,7.67
2018-04-13T22:40:07.337Z,7.75
2018-04-13T22:42:34.914Z,7.74
2018-04-13T22:45:02.409Z,7.70
2018-04-13T22:47:29.926Z,7.71
2018-04-13T22:49:57.461Z,7.70
2018-04-13T22:52:25.192Z,7.68
2018-04-13T22:54:52.677Z,7.62
2018-04-13T22:57:20.164Z,7.64
2018-04-13T22:59:47.675Z,7.70
2018-04-13T23:02:15.553Z,7.70
2018-04-13T23:04:43.074Z,7.74
2018-04-13T23:07:10.570Z,7.71
2018-04-13T23:09:38.049Z,7.64
2018-04-13T23:12:05.558Z,7.56
2018-04-13T23:14:33.057Z,7.55
2018-04-13T23:17:00.554Z,7.51
2018-04-13T23:19:28.079Z,7.47
2018-04-13T23:21:55.586Z,7.44
2018-04-13T23:24:23.195Z,7.57
2018-04-13T23:26:50.706Z,7.66
2018-04-13T23:29:18.180Z,7.77
2018-04-13T23:31:45.654Z,7.85
2018-04-13T23:34:13.154Z,7.77
2018-04-13T23:36:40.644Z,7.69
2018-04-13T23:39:08.129Z,7.71
2018-04-13T23:41:35.646Z,7.74
2018-04-13T23:44:03.146Z,7.79
2018-04-13T23:46:30.639Z,7.81
2018-04-13T23:48:58.125Z,7.85
2018-04-13T23:51:25.668Z,7.90
2018-04-13T23:53:53.160Z,8.04
2018-04-13T23:56:20.649Z,8.09
2018-04-13T23:58:48.148Z,8.01
